Time;durP1;ratioP1;P1;durP2;ratioP2;P2;SDS_P1;SDS_P2;PMS_P1;PMS_P2;Temp;Humidity;BMP_temperature;BMP_pressure;BME280_temperature;BME280_humidity;BME280_pressure;Samples;Min_cycle;Max_cycle;Signal;HPM_P1;HPM_P2
2022/08/11 00:00:34;;;;;;;2.50;2.20;;;;;;;;;;5094583;28;20239;-84
2022/08/11 00:03:06;;;;;;;4.45;2.78;;;;;;;;;;5094512;28;20212;-85
2022/08/11 00:05:34;;;;;;;2.55;2.20;;;;;;;;;;5095416;28;20677;-84
2022/08/11 00:08:01;;;;;;;3.20;2.90;;;;;;;;;;5113781;28;20211;-84
2022/08/11 00:10:29;;;;;;;2.72;2.45;;;;;;;;;;5113466;28;20235;-85
2022/08/11 00:12:57;;;;;;;3.05;2.75;;;;;;;;;;5114962;28;20200;-84
2022/08/11 00:15:25;;;;;;;3.40;2.55;;;;;;;;;;5138696;28;20212;-83
2022/08/11 00:17:57;;;;;;;5.63;3.05;;;;;;;;;;5138848;28;20192;-80
2022/08/11 00:20:30;;;;;;;2.85;2.65;;;;;;;;;;5122478;28;20284;-84
2022/08/11 00:23:02;;;;;;;2.78;2.58;;;;;;;;;;5118447;28;20188;-84
2022/08/11 00:25:29;;;;;;;4.05;2.60;;;;;;;;;;5119429;28;20230;-85
2022/08/11 00:27:56;;;;;;;3.40;2.55;;;;;;;;;;5111645;28;20199;-84
2022/08/11 00:30:23;;;;;;;3.35;2.60;;;;;;;;;;5117493;28;20239;-85
2022/08/11 00:32:55;;;;;;;2.83;2.50;;;;;;;;;;5117675;28;20667;-83
2022/08/11 00:35:25;;;;;;;5.10;2.78;;;;;;;;;;5116736;28;20232;-85
2022/08/11 00:37:54;;;;;;;9.63;2.83;;;;;;;;;;5116637;28;20204;-85
2022/08/11 00:40:25;;;;;;;5.13;2.92;;;;;;;;;;5106836;28;20233;-85
2022/08/11 00:42:59;;;;;;;3.30;3.05;;;;;;;;;;5096968;28;20181;-85
2022/08/11 00:45:27;;;;;;;4.53;2.60;;;;;;;;;;5096577;28;20239;-85
2022/08/11 00:47:58;;;;;;;7.60;2.88;;;;;;;;;;5097150;28;20197;-85
2022/08/11 00:50:30;;;;;;;8.27;2.83;;;;;;;;;;5096592;28;20293;-84
2022/08/11 00:53:08;;;;;;;3.60;2.77;;;;;;;;;;5091194;28;20223;-85
2022/08/11 00:55:43;;;;;;;3.17;2.93;;;;;;;;;;5091508;28;20248;-85
2022/08/11 00:58:29;;;;;;;3.80;2.70;;;;;;;;;;5091807;28;20608;-84
2022/08/11 01:01:04;;;;;;;4.47;2.80;;;;;;;;;;5071168;28;20245;-85
2022/08/11 01:03:40;;;;;;;4.27;3.23;;;;;;;;;;5072234;28;20197;-85
2022/08/11 01:06:19;;;;;;;5.40;2.97;;;;;;;;;;5079011;28;20599;-85
2022/08/11 01:09:09;;;;;;;3.03;2.73;;;;;;;;;;5093865;28;20204;-85
2022/08/11 01:11:54;;;;;;;6.17;3.00;;;;;;;;;;5074502;28;20244;-84
2022/08/11 01:14:27;;;;;;;3.20;3.00;;;;;;;;;;5074952;28;20691;-85
2022/08/11 01:17:04;;;;;;;3.33;2.53;;;;;;;;;;5074425;28;20229;-84
2022/08/11 01:19:52;;;;;;;5.43;3.07;;;;;;;;;;5075311;28;20196;-85
2022/08/11 01:22:37;;;;;;;5.07;3.00;;;;;;;;;;5074799;28;20234;-85
2022/08/11 01:25:27;;;;;;;3.13;2.80;;;;;;;;;;5077122;28;20189;-83
2022/08/11 01:28:11;;;;;;;3.97;3.33;;;;;;;;;;5103888;28;20197;-84
2022/08/11 01:30:56;;;;;;;3.30;3.00;;;;;;;;;;5087232;28;20239;-84
2022/08/11 01:33:58;;;;;;;4.33;3.47;;;;;;;;;;5099399;28;20200;-84
2022/08/11 01:36:40;;;;;;;3.63;3.10;;;;;;;;;;5114877;28;20259;-84
2022/08/11 01:39:16;;;;;;;6.40;3.00;;;;;;;;;;5100275;28;20204;-85
2022/08/11 01:44:46;;;;;;;8.93;2.97;;;;;;;;;;5115335;28;20183;-85
2022/08/11 01:50:17;;;;;;;4.80;3.83;;;;;;;;;;5077402;28;20223;-84
2022/08/11 01:52:53;;;;;;;5.73;3.50;;;;;;;;;;5088105;28;20208;-84
2022/08/11 01:55:23;;;;;;;5.00;3.50;;;;;;;;;;5093979;28;20688;-85
2022/08/11 01:57:53;;;;;;;4.00;3.23;;;;;;;;;;5094538;28;20197;-85
2022/08/11 02:00:22;;;;;;;3.37;3.10;;;;;;;;;;5102957;28;20248;-85
2022/08/11 02:02:53;;;;;;;4.30;3.17;;;;;;;;;;5114613;28;20212;-84
2022/08/11 02:05:37;;;;;;;3.47;3.13;;;;;;;;;;5097225;28;20252;-84
2022/08/11 02:08:10;;;;;;;6.10;3.20;;;;;;;;;;5113918;28;20188;-84
2022/08/11 02:13:33;;;;;;;4.57;3.37;;;;;;;;;;5094341;28;20179;-85
2022/08/11 02:16:06;;;;;;;3.30;3.10;;;;;;;;;;5093119;28;20228;-85
2022/08/11 02:24:14;;;;;;;8.00;4.17;;;;;;;;;;5058139;28;20731;-83
2022/08/11 02:26:44;;;;;;;7.53;3.50;;;;;;;;;;5111315;28;20227;-85
2022/08/11 02:29:16;;;;;;;4.67;3.33;;;;;;;;;;5094157;28;20288;-85
2022/08/11 02:34:39;;;;;;;6.00;3.73;;;;;;;;;;5114264;28;20223;-83
2022/08/11 02:37:14;;;;;;;4.33;3.93;;;;;;;;;;5113584;28;20238;-85
2022/08/11 02:39:46;;;;;;;3.43;3.17;;;;;;;;;;5114161;28;20213;-85
2022/08/11 02:42:23;;;;;;;5.40;3.30;;;;;;;;;;5113361;28;20228;-85
2022/08/11 02:44:56;;;;;;;6.00;3.63;;;;;;;;;;5114070;28;20662;-85
2022/08/11 02:47:31;;;;;;;6.33;3.30;;;;;;;;;;5113953;28;20673;-85
2022/08/11 02:50:01;;;;;;;5.00;3.53;;;;;;;;;;5098680;28;20203;-84
2022/08/11 02:52:32;;;;;;;4.50;3.47;;;;;;;;;;5093402;28;20275;-85
2022/08/11 02:55:11;;;;;;;3.40;3.17;;;;;;;;;;5112789;28;20227;-84
2022/08/11 02:57:41;;;;;;;3.60;3.30;;;;;;;;;;5106290;28;20215;-85
2022/08/11 03:00:09;;;;;;;5.67;3.53;;;;;;;;;;5092862;28;20224;-85
2022/08/11 03:02:44;;;;;;;5.83;3.30;;;;;;;;;;5097209;28;20573;-85
2022/08/11 03:05:31;;;;;;;5.30;3.53;;;;;;;;;;5113312;28;20195;-85
2022/08/11 03:08:08;;;;;;;3.70;3.40;;;;;;;;;;5106551;28;20201;-85
2022/08/11 03:10:42;;;;;;;3.80;3.40;;;;;;;;;;5092935;28;20714;-85
2022/08/11 03:18:57;;;;;;;3.93;3.07;;;;;;;;;;5093540;28;20181;-84
2022/08/11 03:21:26;;;;;;;4.40;3.43;;;;;;;;;;5104132;28;20239;-85
2022/08/11 03:23:56;;;;;;;3.73;3.43;;;;;;;;;;5090510;28;20228;-83
2022/08/11 03:26:28;;;;;;;4.30;3.60;;;;;;;;;;5102359;28;20236;-84
2022/08/11 03:29:12;;;;;;;6.57;3.40;;;;;;;;;;5094835;28;20204;-84
2022/08/11 03:31:45;;;;;;;5.13;3.40;;;;;;;;;;5090412;28;20232;-84
2022/08/11 03:34:15;;;;;;;4.83;3.87;;;;;;;;;;5093126;28;20732;-83
2022/08/11 03:36:55;;;;;;;4.10;3.73;;;;;;;;;;5092431;28;20248;-85
2022/08/11 03:39:26;;;;;;;4.07;3.67;;;;;;;;;;5093162;28;20192;-84
2022/08/11 03:42:01;;;;;;;3.90;3.50;;;;;;;;;;5091924;28;20239;-84
2022/08/11 03:44:38;;;;;;;5.23;3.73;;;;;;;;;;5092917;28;20253;-82
2022/08/11 03:47:15;;;;;;;3.87;3.43;;;;;;;;;;5092512;28;20232;-84
2022/08/11 03:49:46;;;;;;;4.60;3.70;;;;;;;;;;5092795;28;20208;-85
2022/08/11 03:52:22;;;;;;;5.40;3.50;;;;;;;;;;5092293;28;20233;-85
2022/08/11 03:54:55;;;;;;;4.03;3.63;;;;;;;;;;5093270;28;20231;-84
2022/08/11 03:57:49;;;;;;;6.87;3.70;;;;;;;;;;5092706;28;20216;-85
2022/08/11 04:00:34;;;;;;;6.23;3.90;;;;;;;;;;5092589;28;20220;-85
2022/08/11 04:03:24;;;;;;;3.93;3.63;;;;;;;;;;5092805;28;20228;-85
2022/08/11 04:06:15;;;;;;;5.37;3.60;;;;;;;;;;5092174;28;20240;-84
2022/08/11 04:09:03;;;;;;;9.67;4.27;;;;;;;;;;5088527;28;20206;-83
2022/08/11 04:11:53;;;;;;;5.50;3.70;;;;;;;;;;5090704;28;20700;-83
2022/08/11 04:17:49;;;;;;;6.03;4.00;;;;;;;;;;5086222;28;20593;-82
2022/08/11 04:20:26;;;;;;;13.67;4.20;;;;;;;;;;5095993;28;20267;-82
2022/08/11 04:23:12;;;;;;;5.87;4.13;;;;;;;;;;5089417;28;20201;-81
2022/08/11 04:26:09;;;;;;;5.13;3.97;;;;;;;;;;5081545;28;20229;-80
2022/08/11 04:28:43;;;;;;;7.87;3.60;;;;;;;;;;5035634;28;20211;-80
2022/08/11 04:31:20;;;;;;;3.93;3.50;;;;;;;;;;5069863;28;20244;-81
2022/08/11 04:34:13;;;;;;;5.87;4.50;;;;;;;;;;5077266;28;20262;-83
2022/08/11 04:39:54;;;;;;;6.07;3.87;;;;;;;;;;5075006;28;20208;-83
2022/08/11 04:45:46;;;;;;;5.13;3.90;;;;;;;;;;5077887;28;20792;-83
2022/08/11 05:03:09;;;;;;;6.00;4.03;;;;;;;;;;5094885;28;20255;-81
2022/08/11 05:05:48;;;;;;;8.10;4.13;;;;;;;;;;5100973;28;20517;-82
2022/08/11 05:08:34;;;;;;;7.37;3.93;;;;;;;;;;5102214;28;20204;-81
2022/08/11 05:11:08;;;;;;;4.50;4.10;;;;;;;;;;5101163;28;20240;-81
2022/08/11 05:35:50;;;;;;;5.37;4.97;;;;;;;;;;5085279;28;20666;-81
2022/08/11 05:57:48;;;;;;;10.20;4.83;;;;;;;;;;5100323;28;20227;-81
2022/08/11 06:00:15;;;;;;;5.63;4.70;;;;;;;;;;5099881;28;20314;-81
2022/08/11 06:02:43;;;;;;;5.33;4.80;;;;;;;;;;5097718;28;20258;-81
2022/08/11 06:05:10;;;;;;;7.93;4.53;;;;;;;;;;5098019;28;20209;-81
2022/08/11 06:07:38;;;;;;;10.03;5.33;;;;;;;;;;5098344;28;20192;-81
2022/08/11 06:10:07;;;;;;;6.63;5.13;;;;;;;;;;5096860;28;20212;-81
2022/08/11 06:12:36;;;;;;;10.23;4.80;;;;;;;;;;5098683;28;20204;-79
2022/08/11 06:15:04;;;;;;;5.13;4.63;;;;;;;;;;5097764;28;20228;-82
2022/08/11 06:17:33;;;;;;;10.60;5.27;;;;;;;;;;5098737;28;20205;-81
2022/08/11 06:20:01;;;;;;;10.20;5.10;;;;;;;;;;5102378;28;20204;-78
2022/08/11 06:22:28;;;;;;;5.50;4.80;;;;;;;;;;5095335;28;20197;-81
2022/08/11 06:24:57;;;;;;;7.43;4.80;;;;;;;;;;5095838;28;20205;-81
2022/08/11 06:27:26;;;;;;;6.73;4.33;;;;;;;;;;5094979;28;20223;-82
2022/08/11 06:29:54;;;;;;;8.00;5.30;;;;;;;;;;5094179;28;20687;-81
2022/08/11 06:32:24;;;;;;;4.93;4.07;;;;;;;;;;5093668;28;20233;-81
2022/08/11 06:35:09;;;;;;;4.80;4.27;;;;;;;;;;5094915;28;20599;-82
2022/08/11 06:37:42;;;;;;;6.27;4.30;;;;;;;;;;5102065;28;20236;-81
2022/08/11 06:40:11;;;;;;;8.67;4.10;;;;;;;;;;5096321;28;20228;-82
2022/08/11 06:42:46;;;;;;;4.47;3.93;;;;;;;;;;5094556;28;20205;-79
2022/08/11 06:45:17;;;;;;;4.77;3.90;;;;;;;;;;5094514;28;20223;-78
2022/08/11 06:47:46;;;;;;;4.10;2.97;;;;;;;;;;5102426;28;20224;-79
2022/08/11 06:53:02;;;;;;;5.65;2.88;;;;;;;;;;5099645;28;20715;-80
2022/08/11 07:01:06;;;;;;;4.13;2.90;;;;;;;;;;5043505;28;20608;-81
2022/08/11 07:03:36;;;;;;;3.53;2.55;;;;;;;;;;5096484;28;20208;-81
2022/08/11 07:06:07;;;;;;;2.53;2.33;;;;;;;;;;5096920;28;20241;-81
2022/08/11 07:17:32;;;;;;;5.65;2.50;;;;;;;;;;5094450;28;20215;-82
2022/08/11 07:31:14;;;;;;;3.20;2.70;;;;;;;;;;5094177;28;20243;-81
2022/08/11 07:33:44;;;;;;;4.28;2.50;;;;;;;;;;5096752;28;20235;-82
2022/08/11 07:36:12;;;;;;;5.07;2.40;;;;;;;;;;5094895;28;20236;-82
2022/08/11 07:38:44;;;;;;;2.42;2.22;;;;;;;;;;5095841;28;20196;-83
2022/08/11 07:41:13;;;;;;;3.90;2.17;;;;;;;;;;5099643;28;20712;-82
2022/08/11 07:43:40;;;;;;;4.90;2.20;;;;;;;;;;5096989;28;20197;-82
2022/08/11 07:54:25;;;;;;;3.72;2.15;;;;;;;;;;5097996;28;20254;-81
2022/08/11 07:56:52;;;;;;;11.50;2.25;;;;;;;;;;5097273;28;20288;-81
2022/08/11 08:18:39;;;;;;;3.75;2.35;;;;;;;;;;5091531;28;20204;-81
2022/08/11 08:21:17;;;;;;;4.53;2.22;;;;;;;;;;5098191;28;20240;-81
2022/08/11 08:23:46;;;;;;;3.55;2.10;;;;;;;;;;5098048;28;20212;-82
2022/08/11 08:31:52;;;;;;;3.58;2.20;;;;;;;;;;5095925;28;20718;-82
2022/08/11 08:34:19;;;;;;;2.55;2.00;;;;;;;;;;5094230;28;20211;-82
2022/08/11 08:36:49;;;;;;;2.58;2.25;;;;;;;;;;5083666;28;20255;-82
2022/08/11 08:39:20;;;;;;;5.13;1.90;;;;;;;;;;5093978;28;20208;-82
2022/08/11 08:41:49;;;;;;;2.22;2.00;;;;;;;;;;5130435;22;20659;-82
2022/08/11 08:44:19;;;;;;;2.67;2.00;;;;;;;;;;5114796;28;20223;-82
2022/08/11 08:46:48;;;;;;;2.40;2.15;;;;;;;;;;5121950;28;20236;-80
2022/08/11 08:49:17;;;;;;;6.22;2.25;;;;;;;;;;5123046;28;20233;-81
2022/08/11 08:51:45;;;;;;;2.35;2.15;;;;;;;;;;5121824;28;20265;-82
2022/08/11 08:54:17;;;;;;;5.68;2.13;;;;;;;;;;5122432;27;20257;-82
2022/08/11 08:56:45;;;;;;;2.83;2.15;;;;;;;;;;5108594;28;20228;-82
2022/08/11 08:59:14;;;;;;;3.33;2.20;;;;;;;;;;5101467;28;20575;-80
2022/08/11 09:01:44;;;;;;;5.50;2.00;;;;;;;;;;5103018;28;20263;-82
2022/08/11 09:04:11;;;;;;;2.20;2.00;;;;;;;;;;5121614;28;20269;-81
2022/08/11 09:06:39;;;;;;;2.78;2.10;;;;;;;;;;5121854;28;20242;-82
2022/08/11 09:09:08;;;;;;;2.20;1.90;;;;;;;;;;5122735;28;20208;-82
2022/08/11 09:11:53;;;;;;;1.98;1.88;;;;;;;;;;5123012;28;20236;-81
2022/08/11 09:14:20;;;;;;;1.80;1.70;;;;;;;;;;5122186;28;20204;-82
2022/08/11 09:16:49;;;;;;;2.00;1.80;;;;;;;;;;5121296;28;20695;-81
2022/08/11 09:19:17;;;;;;;1.80;1.70;;;;;;;;;;5122516;28;20211;-83
2022/08/11 09:26:57;;;;;;;2.20;2.03;;;;;;;;;;5118424;28;20761;-82
2022/08/11 09:27:20;;;;;;;3.35;1.83;;;;;;;;;;5121277;28;20327;-81
2022/08/11 09:29:48;;;;;;;2.85;1.85;;;;;;;;;;5120563;28;20192;-82
2022/08/11 09:32:15;;;;;;;2.33;1.70;;;;;;;;;;5121193;28;20236;-82
2022/08/11 09:34:43;;;;;;;2.03;1.90;;;;;;;;;;5121331;28;20207;-83
2022/08/11 09:45:28;;;;;;;2.20;1.85;;;;;;;;;;5119539;28;20239;-82
2022/08/11 09:47:55;;;;;;;3.45;2.00;;;;;;;;;;5119473;28;20200;-82
2022/08/11 09:50:23;;;;;;;1.77;1.67;;;;;;;;;;5117147;28;20239;-82
2022/08/11 09:52:50;;;;;;;4.07;2.00;;;;;;;;;;5119440;28;20219;-81
2022/08/11 09:55:18;;;;;;;2.55;1.92;;;;;;;;;;5119921;28;20262;-82
2022/08/11 10:00:36;;;;;;;1.60;1.50;;;;;;;;;;5120267;28;20235;-81
2022/08/11 10:03:05;;;;;;;4.70;1.50;;;;;;;;;;5119911;28;20232;-82
2022/08/11 10:08:18;;;;;;;2.13;1.80;;;;;;;;;;5116504;28;20195;-83
2022/08/11 10:10:46;;;;;;;3.72;2.03;;;;;;;;;;5114955;28;20869;-82
2022/08/11 10:13:17;;;;;;;2.35;1.77;;;;;;;;;;5116668;28;20824;-82
2022/08/11 10:15:45;;;;;;;2.65;1.55;;;;;;;;;;5117340;28;20239;-82
2022/08/11 10:21:01;;;;;;;2.83;2.17;;;;;;;;;;5120224;28;20714;-82
2022/08/11 10:33:58;;;;;;;3.17;1.92;;;;;;;;;;5135222;28;20187;-84
2022/08/11 10:34:31;;;;;;;2.03;1.70;;;;;;;;;;5106529;27;20235;-82
2022/08/11 10:37:01;;;;;;;2.35;2.10;;;;;;;;;;5114882;28;20231;-82
2022/08/11 10:39:29;;;;;;;2.20;2.00;;;;;;;;;;5129857;27;20228;-82
2022/08/11 10:44:51;;;;;;;3.88;1.90;;;;;;;;;;5076947;28;20232;-83
2022/08/11 10:47:36;;;;;;;2.00;1.80;;;;;;;;;;5135266;28;20223;-84
2022/08/11 11:01:15;;;;;;;2.60;2.40;;;;;;;;;;5147490;27;20599;-81
2022/08/11 11:03:43;;;;;;;2.38;1.80;;;;;;;;;;5136574;28;20231;-82
2022/08/11 11:06:18;;;;;;;3.92;2.20;;;;;;;;;;5137120;27;20238;-80
2022/08/11 11:08:52;;;;;;;2.30;2.10;;;;;;;;;;5135480;28;20198;-82
2022/08/11 11:11:21;;;;;;;2.55;2.03;;;;;;;;;;5135874;27;20230;-80
2022/08/11 11:19:24;;;;;;;2.80;1.70;;;;;;;;;;5138163;28;20228;-82
2022/08/11 11:21:53;;;;;;;2.40;1.90;;;;;;;;;;5136670;27;20244;-82
2022/08/11 11:24:36;;;;;;;2.20;2.10;;;;;;;;;;5138735;28;20203;-83
2022/08/11 11:27:07;;;;;;;1.92;1.83;;;;;;;;;;5136911;27;20270;-82
2022/08/11 11:29:40;;;;;;;4.13;2.10;;;;;;;;;;5136309;28;20203;-84
2022/08/11 11:32:15;;;;;;;2.05;1.85;;;;;;;;;;5135396;27;20238;-83
2022/08/11 11:34:59;;;;;;;2.90;1.92;;;;;;;;;;5135722;28;20210;-84
2022/08/11 11:37:27;;;;;;;3.75;2.05;;;;;;;;;;5132018;27;20214;-82
2022/08/11 11:39:56;;;;;;;3.58;2.10;;;;;;;;;;5134626;28;20226;-84
2022/08/11 11:42:24;;;;;;;7.82;2.08;;;;;;;;;;5133892;28;20231;-83
2022/08/11 11:44:51;;;;;;;2.20;1.92;;;;;;;;;;5134156;28;20650;-83
2022/08/11 11:47:21;;;;;;;1.80;1.70;;;;;;;;;;5134121;27;20284;-86
2022/08/11 11:49:49;;;;;;;5.45;2.30;;;;;;;;;;5136253;28;20199;-83
2022/08/11 11:52:17;;;;;;;2.28;2.17;;;;;;;;;;5133497;27;20242;-82
2022/08/11 11:54:49;;;;;;;1.85;1.75;;;;;;;;;;5135470;28;20270;-83
2022/08/11 12:02:48;;;;;;;2.83;1.85;;;;;;;;;;5109742;27;20743;-84
2022/08/11 12:05:15;;;;;;;2.42;2.10;;;;;;;;;;5145471;27;20199;-83
2022/08/11 12:10:27;;;;;;;3.45;1.90;;;;;;;;;;5140388;27;20267;-84
2022/08/11 12:15:39;;;;;;;5.75;2.67;;;;;;;;;;5128840;27;20762;-84
2022/08/11 12:18:08;;;;;;;2.67;2.20;;;;;;;;;;5133169;27;20230;-84
2022/08/11 12:20:35;;;;;;;4.38;1.88;;;;;;;;;;5135951;27;20242;-84
2022/08/11 12:28:32;;;;;;;1.65;1.55;;;;;;;;;;5136411;27;20237;-84
2022/08/11 12:30:59;;;;;;;2.40;1.75;;;;;;;;;;5135912;27;20748;-84
2022/08/11 12:33:28;;;;;;;2.33;1.63;;;;;;;;;;5136832;27;20217;-83
2022/08/11 12:35:58;;;;;;;3.30;1.60;;;;;;;;;;5136392;27;20226;-83
2022/08/11 12:38:26;;;;;;;2.22;1.83;;;;;;;;;;5135753;27;20207;-83
2022/08/11 12:46:24;;;;;;;1.80;1.70;;;;;;;;;;5134811;27;20716;-82
2022/08/11 12:52:01;;;;;;;13.00;2.80;;;;;;;;;;5090860;28;20781;-84
2022/08/11 12:54:30;;;;;;;2.88;1.80;;;;;;;;;;5127019;27;20226;-83
2022/08/11 13:05:16;;;;;;;2.28;2.10;;;;;;;;;;5115408;27;20230;-85
2022/08/11 13:07:44;;;;;;;2.78;2.00;;;;;;;;;;5115904;28;20203;-84
2022/08/11 13:10:14;;;;;;;4.13;1.92;;;;;;;;;;5114825;27;20203;-83
2022/08/11 13:12:47;;;;;;;2.72;1.83;;;;;;;;;;5115466;28;20223;-84
2022/08/11 13:15:15;;;;;;;2.10;1.90;;;;;;;;;;5115113;27;20256;-83
2022/08/11 13:17:43;;;;;;;2.95;2.10;;;;;;;;;;5115919;28;20204;-83
2022/08/11 13:20:11;;;;;;;2.42;2.00;;;;;;;;;;5116627;27;20223;-84
2022/08/11 13:22:40;;;;;;;2.20;2.00;;;;;;;;;;5116173;28;20286;-83
2022/08/11 13:25:08;;;;;;;2.90;2.00;;;;;;;;;;5116960;27;20632;-85
2022/08/11 13:27:35;;;;;;;2.53;1.80;;;;;;;;;;5116150;28;20261;-85
2022/08/11 13:32:49;;;;;;;3.42;2.13;;;;;;;;;;5116200;28;20225;-80
2022/08/11 13:35:18;;;;;;;2.60;1.75;;;;;;;;;;5119595;27;20256;-83
2022/08/11 13:37:47;;;;;;;2.00;1.70;;;;;;;;;;5115993;28;20268;-83
2022/08/11 13:40:14;;;;;;;1.70;1.60;;;;;;;;;;5114598;27;20223;-84
2022/08/11 13:42:41;;;;;;;2.03;1.80;;;;;;;;;;5118915;28;20236;-82
2022/08/11 13:45:09;;;;;;;2.95;1.85;;;;;;;;;;5115446;27;20208;-83
2022/08/11 13:47:37;;;;;;;1.65;1.55;;;;;;;;;;5116256;28;20231;-85
2022/08/11 13:50:05;;;;;;;1.60;1.50;;;;;;;;;;5114870;27;20208;-85
2022/08/11 13:52:33;;;;;;;2.35;2.05;;;;;;;;;;5115539;28;20220;-86
2022/08/11 13:55:02;;;;;;;5.55;2.58;;;;;;;;;;5114943;27;20217;-85
2022/08/11 13:57:32;;;;;;;2.40;2.10;;;;;;;;;;5115348;28;20584;-86
2022/08/11 14:00:08;;;;;;;2.00;1.70;;;;;;;;;;5115045;27;20220;-82
2022/08/11 14:02:36;;;;;;;2.83;1.80;;;;;;;;;;5115458;28;20297;-85
2022/08/11 14:05:06;;;;;;;8.00;1.95;;;;;;;;;;5115522;27;20215;-81
2022/08/11 14:07:35;;;;;;;3.10;1.90;;;;;;;;;;5115612;28;20203;-86
2022/08/11 14:10:04;;;;;;;3.08;1.60;;;;;;;;;;5114058;27;20200;-86
2022/08/11 14:15:19;;;;;;;2.78;2.15;;;;;;;;;;5113155;27;20221;-85
2022/08/11 14:17:48;;;;;;;3.45;1.65;;;;;;;;;;5112694;28;20236;-86
2022/08/11 14:20:17;;;;;;;2.75;1.88;;;;;;;;;;5112360;27;20232;-84
2022/08/11 14:22:45;;;;;;;2.25;1.80;;;;;;;;;;5113081;28;20232;-85
2022/08/11 14:25:14;;;;;;;3.38;1.98;;;;;;;;;;5112864;27;20204;-85
2022/08/11 14:27:41;;;;;;;2.17;1.90;;;;;;;;;;5112719;28;20208;-86
2022/08/11 14:30:53;;;;;;;1.70;1.60;;;;;;;;;;5112238;27;20207;-86
2022/08/11 14:32:56;;;;;;;1.92;1.83;;;;;;;;;;5112116;28;20557;-86
2022/08/11 14:35:24;;;;;;;1.83;1.70;;;;;;;;;;5111691;27;20674;-86
2022/08/11 14:37:52;;;;;;;1.80;1.70;;;;;;;;;;5112696;28;20204;-86
2022/08/11 14:48:31;;;;;;;2.72;1.50;;;;;;;;;;5092640;28;20176;-85
2022/08/11 14:50:59;;;;;;;1.90;1.58;;;;;;;;;;5092115;28;20240;-82
2022/08/11 14:53:26;;;;;;;3.65;1.90;;;;;;;;;;5092872;28;20208;-83
2022/08/11 14:58:39;;;;;;;3.80;1.90;;;;;;;;;;5093923;28;20210;-82
2022/08/11 15:03:05;;;;;;;2.35;1.70;;;;;;;;;;5091760;28;20650;-83
2022/08/11 15:03:53;;;;;;;2.08;1.73;;;;;;;;;;5092018;28;20211;-84
2022/08/11 15:06:20;;;;;;;2.38;1.63;;;;;;;;;;5091796;28;20228;-83
2022/08/11 15:08:54;;;;;;;1.85;1.73;;;;;;;;;;5091965;28;20210;-83
2022/08/11 15:14:09;;;;;;;2.83;1.80;;;;;;;;;;5092391;28;20204;-83
2022/08/11 15:19:31;;;;;;;1.95;1.85;;;;;;;;;;5125071;28;20191;-85
2022/08/11 15:24:43;;;;;;;3.25;1.70;;;;;;;;;;5092591;28;20573;-83
2022/08/11 15:38:14;;;;;;;4.28;2.65;;;;;;;;;;5114007;28;20199;-83
2022/08/11 15:46:17;;;;;;;2.42;1.73;;;;;;;;;;5091172;28;20238;-84
2022/08/11 15:48:47;;;;;;;2.05;1.65;;;;;;;;;;5117108;28;20212;-83
2022/08/11 15:51:21;;;;;;;3.53;1.80;;;;;;;;;;5116489;27;20232;-83
2022/08/11 15:53:51;;;;;;;2.50;2.30;;;;;;;;;;5116634;28;20211;-84
2022/08/11 15:56:18;;;;;;;5.47;4.88;;;;;;;;;;5115913;27;20284;-85
2022/08/11 16:04:20;;;;;;;4.78;4.38;;;;;;;;;;5114600;28;20195;-84
2022/08/11 16:06:51;;;;;;;7.53;6.82;;;;;;;;;;5108360;27;20223;-84
2022/08/11 16:09:21;;;;;;;6.47;4.22;;;;;;;;;;5115659;27;20666;-84
2022/08/11 16:11:49;;;;;;;6.53;5.93;;;;;;;;;;5135360;27;20231;-82
2022/08/11 16:17:05;;;;;;;4.90;2.60;;;;;;;;;;5115416;27;20284;-82
2022/08/11 16:19:34;;;;;;;3.55;1.98;;;;;;;;;;5115526;28;20215;-82
2022/08/11 16:22:02;;;;;;;2.67;2.47;;;;;;;;;;5114325;27;20734;-82
2022/08/11 16:24:29;;;;;;;18.15;16.35;;;;;;;;;;5116366;27;20214;-82
2022/08/11 16:26:57;;;;;;;14.38;10.38;;;;;;;;;;5135612;27;20283;-81
2022/08/11 16:29:26;;;;;;;20.98;16.08;;;;;;;;;;5137543;27;20207;-79
2022/08/11 16:40:06;;;;;;;54.80;39.63;;;;;;;;;;5140885;27;20320;-79
2022/08/11 16:48:06;;;;;;;241.50;181.70;;;;;;;;;;5139326;27;20225;-82
2022/08/11 16:50:33;;;;;;;205.82;152.80;;;;;;;;;;5138674;27;20219;-81
2022/08/11 16:53:00;;;;;;;93.00;72.22;;;;;;;;;;5139493;27;20218;-81
2022/08/11 16:55:31;;;;;;;118.88;82.57;;;;;;;;;;5139332;27;20231;-80
2022/08/11 17:00:45;;;;;;;5.18;4.68;;;;;;;;;;5083929;27;20276;-80
2022/08/11 17:14:22;;;;;;;3.80;3.03;;;;;;;;;;5115231;27;20196;-81
2022/08/11 17:16:51;;;;;;;4.75;2.30;;;;;;;;;;5107742;27;20232;-79
2022/08/11 17:19:21;;;;;;;2.72;2.40;;;;;;;;;;5107957;27;20200;-79
2022/08/11 17:24:38;;;;;;;5.80;2.72;;;;;;;;;;5111489;27;20229;-79
2022/08/11 17:27:06;;;;;;;2.53;2.30;;;;;;;;;;5126291;27;20842;-79
2022/08/11 17:29:34;;;;;;;3.45;2.72;;;;;;;;;;5117582;28;20264;-80
2022/08/11 17:37:36;;;;;;;4.07;2.88;;;;;;;;;;5117949;27;20223;-80
2022/08/11 17:40:05;;;;;;;5.10;2.42;;;;;;;;;;5116960;27;20229;-80
2022/08/11 17:50:50;;;;;;;3.50;2.40;;;;;;;;;;5115332;27;20602;-79
2022/08/11 18:01:34;;;;;;;6.22;3.15;;;;;;;;;;5118499;27;20235;-80
2022/08/11 18:04:04;;;;;;;7.38;3.28;;;;;;;;;;5114592;27;20664;-80
2022/08/11 18:06:31;;;;;;;5.00;2.70;;;;;;;;;;5120742;28;20812;-81
